Flight Track Log - Related Links

Times and Time Zones

All times are in EST time to prevent confusion due to time zone crossing. See the EJA122 flight status page for this flight to view local times or setup timezone preferences in your user account.

Time Position Orientation Groundspeed Altitude Reporting Facility
EST Latitude Longitude Course Direction KTS MPH feet Rate Location/Type
Mon 10:23:02 AM 38.0964 -85.7028 357° North 201 231 5,100  Level Kansas City Center
Mon 10:24:04 AM 38.0758 -85.7636 247° West 213 245 8,100 2,323 Climbing Kansas City Center
Mon 10:25:06 AM 38.1414 -85.7953 339° North 236 272 9,900 1,113 Climbing Kansas City Center
Mon 10:26:08 AM 38.2211 -85.8236 344° North 267 307 10,400 726 Climbing Kansas City Center
Mon 10:27:10 AM 38.3050 -85.8525 345° North 288 331 11,400 1,016 Climbing Kansas City Center
Mon 10:28:00 AM 38.5910 -85.9967 357° North  Level FlightAware Approximate
Mon 10:28:12 AM 38.3914 -85.8811 345° North 303 349 12,500  Level Kansas City Center
Mon 10:29:14 AM 38.5033 -85.9203 345° North 323 372 14,300 1,645 Climbing Kansas City Center
Mon 10:30:16 AM 38.6036 -85.9556 345° North 344 396 15,900 1,511 Climbing Kansas City Center
Mon 10:31:29 AM 38.7281 -85.9983 345° North 376 433 17,700 1,333 Climbing Indianapolis Center
Mon 10:32:31 AM 38.8114 -86.0667 327° Northwest 371 427 18,900 1,210 Climbing Indianapolis Center
Mon 10:33:33 AM 38.8683 -86.1700 305° West 357 411 20,200 1,210 Climbing Indianapolis Center
Mon 10:34:35 AM 38.9292 -86.2764 306° West 365 420 21,400 1,161 Climbing Indianapolis Center
Mon 10:35:37 AM 38.9919 -86.3831 307° West 371 427 22,600 1,258 Climbing Indianapolis Center
Mon 10:36:39 AM 39.0664 -86.5122 307° West 373 429 24,000 1,161 Climbing Indianapolis Center
Mon 10:37:41 AM 39.1286 -86.6206 307° West 375 432 25,000 871 Climbing Indianapolis Center
Mon 10:38:43 AM 39.1922 -86.7300 307° West 380 437 25,800 484 Climbing Indianapolis Center
Mon 10:39:45 AM 39.2575 -86.8439 307° West 390 449 26,000 97 Climbing Indianapolis Center
Mon 10:40:47 AM 39.3261 -86.9622 307° West 406 467 26,000  Level Indianapolis Center
Mon 10:41:49 AM 39.3950 -87.0847 306° West 416 479 26,000  Level Indianapolis Center
Mon 10:42:51 AM 39.4783 -87.2300 307° West 420 483 26,000  Level Indianapolis Center
Mon 10:43:53 AM 39.5414 -87.3564 303° West 417 480 26,000  Level Indianapolis Center
Mon 10:44:55 AM 39.6017 -87.4828 302° West 413 475 26,000  Level Indianapolis Center
Mon 10:45:57 AM 39.6636 -87.6081 303° West 413 475 26,000  Level Indianapolis Center
Mon 10:47:12 AM 39.7369 -87.7589 302° West 412 474 26,000  Level Indianapolis Center
Mon 10:48:14 AM 39.7964 -87.8853 302° West 410 472 26,000  Level Indianapolis Center
Mon 10:49:16 AM 39.8578 -88.0122 302° West 412 474 26,000  Level Indianapolis Center
Mon 10:49:56 AM 39.8983 -88.1003 301° West 411 473 26,000  Level Chicago Center
Mon 10:50:58 AM 39.9692 -88.2506 302° West 407 468 26,000  Level Chicago Center
Mon 10:52:00 AM 40.0289 -88.3789 301° West 412 474 26,000  Level Chicago Center
Mon 10:53:02 AM 40.0892 -88.5056 302° West 411 473 26,000  Level Chicago Center
Mon 10:54:04 AM 40.1500 -88.6353 302° West 412 474 26,000  Level Chicago Center
Mon 10:55:05 AM 40.2092 -88.7608 302° West 407 468 26,000  Level Chicago Center
Mon 10:56:07 AM 40.2664 -88.8881 301° West 412 474 26,000  Level Chicago Center
Mon 10:57:09 AM 40.3258 -89.0169 301° West 413 475 26,000  Level Chicago Center
Mon 10:58:11 AM 40.3864 -89.1447 302° West 413 475 26,000  Level Chicago Center
Mon 10:59:12 AM 40.4561 -89.2989 301° West 410 472 26,000  Level Chicago Center
Mon 11:00:14 AM 40.5147 -89.4283 301° West 412 474 26,000  Level Chicago Center
Mon 11:01:16 AM 40.5736 -89.5567 301° West 409 471 26,000 -435 Level Chicago Center
Mon 11:02:18 AM 40.6325 -89.6847 301° West 410 472 25,100 -927 Descending Chicago Center
Mon 11:03:19 AM 40.6922 -89.8089 302° West 404 465 24,100 -1,024 Descending Chicago Center
Mon 11:04:21 AM 40.7703 -89.9106 315° West 399 459 23,000 -532 Descending Chicago Center
Mon 11:05:23 AM 40.8528 -90.0386 310° West 386 444 23,000  Level Chicago Center
Mon 11:06:25 AM 40.9203 -90.1439 310° West 380 437 23,000 -244 Level Chicago Center
Mon 11:07:26 AM 40.9881 -90.2514 310° West 380 437 22,500 -780 Descending Chicago Center
Mon 11:08:28 AM 41.0497 -90.3511 309° West 383 441 21,400 -1,113 Descending Chicago Center
Mon 11:09:30 AM 41.1150 -90.4558 310° West 371 427 20,200 -1,317 Descending Chicago Center
Mon 11:10:31 AM 41.1908 -90.5775 310° West 360 414 18,700 -1,220 Descending Chicago Center
Mon 11:11:33 AM 41.2542 -90.6794 310° West 358 412 17,700 -1,161 Descending Chicago Center
Mon 11:12:35 AM 41.3178 -90.7814 310° West 358 412 16,300 -1,463 Descending Chicago Center
Mon 11:13:36 AM 41.3767 -90.8778 309° West 340 391 14,700 -1,707 Descending Chicago Center
Mon 11:14:38 AM 41.4339 -90.9692 310° West 324 373 12,800 -1,694 Descending Chicago Center
Mon 11:15:40 AM 41.4897 -91.0619 309° West 322 371 11,200 -927 Descending Chicago Center
Mon 11:16:41 AM 41.5486 -91.1572 310° West 330 380 10,900 -146 Descending Chicago Center
Mon 11:17:43 AM 41.6036 -91.2444 310° West 317 365 10,900  Level Chicago Center
Mon 11:18:44 AM 41.6681 -91.3517 309° West 312 359 10,900 -878 Level Chicago Center
Mon 11:19:46 AM 41.7119 -91.4244 309° West 263 303 9,100 -2,032 Descending Chicago Center
Mon 11:20:48 AM 41.7533 -91.4928 309° West 238 274 6,700 -2,341 Descending Chicago Center
Mon 11:21:49 AM 41.7919 -91.5575 309° West 229 264 4,300 -2,049 Descending Chicago Center
Mon 11:22:51 AM 41.8239 -91.6267 302° West 224 258 2,500 -1,161 Descending Chicago Center
Mon 11:23:53 AM 41.8517 -91.6647 314° West 188 216 1,900 -581 Descending Chicago Center
Mon 11:25:00 AM 41.8833 -91.7000 312° West  Level FlightAware Approximate
Mon 11:32:00 AM 41.8847 -91.7108 312° West  Level Estimated
Mon 11:33:00 AM 41.8847 -91.7108 312° West  Level Estimated

Login

Don't have an account? Register now (free) for customized features, flight alerts, and more!